Queen Of Cowichan — CZ4990 — position and weather

sailwx.info

Track history (hours):
 
Tides and Currents Weather Stations Pressure Air Temp Water Temp Dewpoint Dewpoint Depression Visibility Wind Speed Wind Dir Waves Ship Positions

Queen Of Cowichan

Last reported at 2016-Apr-30 04:34 UTC. Time now 2016-Apr-30 05:12 UTC.
Position N 49°23' W 123°16'.

Length 139 m; draft 5.5 m.

Type: Passenger vessel. MMSI: 316001251.

Date/timePositionNaut miles runAvg speedWind from/ knotsBaromVisibWave heightAir tempDewpointWater temp
2016-Apr-30 04:34N 49°23' W 123°16'1514.6
2016-Apr-30 03:33N 49°16' W 123°37'1414.0
2016-Apr-30 02:32N 49°12' W 123°57'1212.3
2016-Apr-30 01:34N 49°16' W 123°41'1717.0
2016-Apr-30 00:33N 49°23' W 123°16'6 5.8
2016-Apr-29 23:34N 49°19' W 123°23'1919.4
2016-Apr-29 22:34N 49°14' W 123°52'4 4.1
2016-Apr-29 21:34N 49°12' W 123°57'1918.7
2016-Apr-29 20:33N 49°18' W 123°30'1010.2
2016-Apr-29 19:33N 49°23' W 123°16'1313.0
2016-Apr-29 18:34N 49°17' W 123°34'1615.5
2016-Apr-29 17:31N 49°12' W 123°57'1111.7
2016-Apr-29 16:34N 49°16' W 123°42'1817.7
2016-Apr-29 15:33N 49°23' W 123°16'9 9.0
2016-Apr-29 14:34N 49°18' W 123°28'2019.8
2016-Apr-29 13:34N 49°12' W 123°57'1 0.7
2016-Apr-29 12:27N 49°12' W 123°57'0 0.0
2016-Apr-29 11:09N 49°12' W 123°57'0 0.0
2016-Apr-29 09:33N 49°12' W 123°57'0 0.0
2016-Apr-29 08:27N 49°12' W 123°57'0 0.0
2016-Apr-29 06:33N 49°12' W 123°57'1010.3
2016-Apr-29 05:33N 49°16' W 123°43'1918.9
2016-Apr-29 04:33N 49°23' W 123°16'9 8.9
2016-Apr-29 03:33N 49°18' W 123°27'2020.1
2016-Apr-29 02:34N 49°12' W 123°57'6 6.4
2016-Apr-29 01:34N 49°15' W 123°48'2019.5
2016-Apr-29 00:34N 49°21' W 123°20'3 2.6
2016-Apr-28 23:33N 49°23' W 123°17'1918.8
2016-Apr-28 22:34N 49°15' W 123°43'10 9.9
2016-Apr-28 21:33N 49°12' W 123°57'1615.8
2016-Apr-28 20:33N 49°18' W 123°35'1313.2
2016-Apr-28 19:33N 49°23' W 123°16'1211.8
2016-Apr-28 18:34N 49°17' W 123°32'1717.2
2016-Apr-28 17:33N 49°12' W 123°57'1110.7
2016-Apr-28 16:33N 49°16' W 123°42'1818.4
2016-Apr-28 15:33N 49°23' W 123°16'9 9.1
2016-Apr-28 14:33N 49°18' W 123°28'2019.5
2016-Apr-28 13:33N 49°12' W 123°57'1 0.6
2016-Apr-28 12:27N 49°12' W 123°57'0 0.0
2016-Apr-28 11:31N 49°12' W 123°57'0 0.0
2016-Apr-28 10:17N 49°12' W 123°57'0 0.0
2016-Apr-28 09:33N 49°12' W 123°57'0 0.0
2016-Apr-28 08:33N 49°12' W 123°57'0 0.0
2016-Apr-28 07:33N 49°12' W 123°57'0 0.0
2016-Apr-28 06:32N 49°12' W 123°57'2 1.6
2016-Apr-28 05:33N 49°13' W 123°55'2019.8
2016-Apr-28 04:33N 49°19' W 123°27'7 6.9
2016-Apr-28 03:34N 49°23' W 123°18'1919.1
2016-Apr-28 02:33N 49°15' W 123°45'8 7.8
2016-Apr-28 01:33N 49°12' W 123°56'2019.7
2016-Apr-28 00:34N 49°19' W 123°28'8 8.2
2016-Apr-27 23:34N 49°23' W 123°17'1918.7
2016-Apr-27 22:34N 49°15' W 123°43'10 9.9
2016-Apr-27 21:33N 49°12' W 123°57'1515.5
2016-Apr-27 20:34N 49°17' W 123°36'1413.6
2016-Apr-27 19:33N 49°23' W 123°16'1211.9
2016-Apr-27 18:34N 49°17' W 123°32'1717.2
2016-Apr-27 17:33N 49°12' W 123°57'1010.5
2016-Apr-27 16:33N 49°16' W 123°43'1918.5
2016-Apr-27 15:34N 49°23' W 123°16'9 9.1
2016-Apr-27 14:33N 49°18' W 123°28'2019.9
2016-Apr-27 13:34N 49°12' W 123°57'1 0.2
2016-Apr-27 11:23N 49°12' W 123°57'0 0.0
2016-Apr-27 10:11N 49°12' W 123°57'1 0.3
2016-Apr-27 05:34N 49°13' W 123°56'2019.7
2016-Apr-27 04:33N 49°19' W 123°27'6 6.4
2016-Apr-27 03:34N 49°22' W 123°19'1919.0
2016-Apr-27 02:34N 49°15' W 123°46'7 7.5
2016-Apr-27 01:34N 49°12' W 123°56'2019.8
2016-Apr-27 00:33N 49°19' W 123°28'9 8.5
2016-Apr-26 23:34N 49°23' W 123°17'1918.9
2016-Apr-26 22:33N 49°15' W 123°43'10 9.9
2016-Apr-26 21:32N 49°12' W 123°57'1515.0
2016-Apr-26 20:34N 49°17' W 123°37'1414.3
2016-Apr-26 19:33N 49°23' W 123°16'1111.2
2016-Apr-26 18:33N 49°17' W 123°31'1817.2
2016-Apr-26 17:31N 49°12' W 123°57'1111.3
2016-Apr-26 16:33N 49°16' W 123°42'1818.1
2016-Apr-26 15:34N 49°23' W 123°16'10 9.8
2016-Apr-26 14:34N 49°18' W 123°29'1919.1
2016-Apr-26 13:33N 49°12' W 123°57'0 0.2
2016-Apr-26 12:32N 49°12' W 123°57'0 0.0
2016-Apr-26 10:20N 49°12' W 123°57'0 0.0
2016-Apr-26 09:32N 49°12' W 123°57'0 0.0
2016-Apr-26 06:32N 49°12' W 123°57'2 2.5
2016-Apr-26 05:33N 49°13' W 123°54'2020.0
2016-Apr-26 04:34N 49°19' W 123°25'3 3.4
2016-Apr-26 03:34N 49°20' W 123°20'2019.8
2016-Apr-26 02:33N 49°15' W 123°49'2 2.2
2016-Apr-26 01:34N 49°14' W 123°52'2019.9
2016-Apr-26 00:33N 49°19' W 123°23'4 3.8
2016-Apr-25 23:34N 49°22' W 123°19'1919.3
2016-Apr-25 22:34N 49°15' W 123°46'8 7.8
2016-Apr-25 21:33N 49°12' W 123°57'1717.1
2016-Apr-25 20:33N 49°18' W 123°33'1212.0
2016-Apr-25 19:33N 49°23' W 123°16'1312.9
2016-Apr-25 18:33N 49°16' W 123°33'1616.1
2016-Apr-25 17:33N 49°12' W 123°57'1111.3
2016-Apr-25 16:33N 49°16' W 123°42'1817.7
2016-Apr-25 15:33N 49°23' W 123°16'9 9.0
2016-Apr-25 14:33N 49°17' W 123°27'2019.8
2016-Apr-25 13:33N 49°12' W 123°57'1 0.1
2016-Apr-25 06:31N 49°12' W 123°57'1414.4
2016-Apr-25 05:34N 49°17' W 123°38'1515.2
2016-Apr-25 04:33N 49°23' W 123°16'1111.3
2016-Apr-25 03:33N 49°17' W 123°31'1817.2
2016-Apr-25 02:31N 49°12' W 123°57'7 7.3
2016-Apr-25 01:33N 49°15' W 123°48'1919.4
2016-Apr-25 00:33N 49°21' W 123°20'1 1.4
2016-Apr-24 23:34N 49°22' W 123°18'2019.6
2016-Apr-24 22:34N 49°15' W 123°46'8 7.8
2016-Apr-24 21:33N 49°12' W 123°57'1514.8
2016-Apr-24 20:33N 49°17' W 123°36'1414.2
2016-Apr-24 19:33N 49°23' W 123°16'1110.6
2016-Apr-24 18:33N 49°17' W 123°30'1817.4
2016-Apr-24 17:30N 49°12' W 123°57'1011.0
2016-Apr-24 16:33N 49°16' W 123°43'1918.7
2016-Apr-24 15:33N 49°23' W 123°16'8 8.2
2016-Apr-24 14:34N 49°18' W 123°26'2020.4
2016-Apr-24 13:34N 49°12' W 123°56'1 1.0
2016-Apr-24 12:32N 49°12' W 123°57'0 0.0
2016-Apr-24 11:28N 49°12' W 123°57'0 0.0
2016-Apr-24 10:31N 49°12' W 123°57'0 0.0
2016-Apr-24 09:32N 49°12' W 123°57'0 0.0
2016-Apr-24 08:33N 49°12' W 123°57'0 0.0
2016-Apr-24 07:33N 49°12' W 123°57'0 0.0
2016-Apr-24 06:33N 49°12' W 123°57'8 7.7
2016-Apr-24 05:34N 49°15' W 123°46'2019.6
2016-Apr-24 04:33N 49°22' W 123°19'4 4.0
2016-Apr-24 03:34N 49°19' W 123°23'2020.1
2016-Apr-24 02:34N 49°14' W 123°53'0 0.1
2016-Apr-24 01:34N 49°14' W 123°52'2020.1
2016-Apr-24 00:33N 49°19' W 123°23'6 5.5
2016-Apr-23 23:34N 49°23' W 123°17'1919.0
2016-Apr-23 22:33N 49°15' W 123°43'10 9.5
2016-Apr-23 21:30N 49°12' W 123°57'1415.0
2016-Apr-23 20:34N 49°17' W 123°37'1514.7
2016-Apr-23 19:34N 49°23' W 123°16'1212.3
2016-Apr-23 18:34N 49°17' W 123°33'1716.1
2016-Apr-23 17:31N 49°12' W 123°57'1111.0
2016-Apr-23 16:34N 49°17' W 123°43'1818.4
2016-Apr-23 15:33N 49°23' W 123°16'8 8.2
2016-Apr-23 14:34N 49°18' W 123°27'2020.3
2016-Apr-23 13:34N 49°12' W 123°57'1 0.4
2016-Apr-23 11:32N 49°12' W 123°57'0 0.0
2016-Apr-23 07:32N 49°12' W 123°57'4 3.7
2016-Apr-23 06:34N 49°14' W 123°53'2019.9
2016-Apr-23 05:34N 49°19' W 123°23'6 6.1
2016-Apr-23 04:33N 49°23' W 123°16'1817.5
2016-Apr-23 03:33N 49°15' W 123°41'1211.4
2016-Apr-23 02:33N 49°12' W 123°57'1515.6
2016-Apr-23 01:34N 49°17' W 123°35'1413.5
2016-Apr-23 00:33N 49°23' W 123°16'8 8.0
2016-Apr-22 23:34N 49°18' W 123°27'2019.9
2016-Apr-22 22:34N 49°13' W 123°56'2 2.2
2016-Apr-22 21:33N 49°14' W 123°53'2020.1
2016-Apr-22 20:34N 49°19' W 123°23'6 5.8
2016-Apr-22 19:33N 49°23' W 123°16'1817.5
2016-Apr-22 18:33N 49°15' W 123°41'1111.3
2016-Apr-22 17:33N 49°12' W 123°57'1616.3
2016-Apr-22 16:34N 49°18' W 123°35'1312.9
2016-Apr-22 15:34N 49°23' W 123°16'1211.9
2016-Apr-22 14:33N 49°17' W 123°32'1717.0
2016-Apr-22 13:33N 49°12' W 123°57'0 0.2
2016-Apr-22 12:29N 49°12' W 123°57'0 0.0
2016-Apr-22 11:17N 49°12' W 123°57'0 0.0
2016-Apr-22 10:29N 49°12' W 123°57'0 0.0
2016-Apr-22 09:05N 49°12' W 123°57'0 0.0
2016-Apr-22 08:23N 49°12' W 123°57'0 0.0
2016-Apr-22 07:32N 49°12' W 123°57'0 0.0
2016-Apr-22 06:29N 49°12' W 123°57'9 9.1
2016-Apr-22 05:34N 49°15' W 123°46'1919.3
2016-Apr-22 04:34N 49°23' W 123°18'8 7.5
2016-Apr-22 03:34N 49°18' W 123°27'2020.1
2016-Apr-22 02:33N 49°12' W 123°57'7 7.3
2016-Apr-22 01:33N 49°15' W 123°47'1919.1
2016-Apr-22 00:33N 49°22' W 123°19'0 0.3
2016-Apr-21 23:34N 49°22' W 123°19'2019.5
2016-Apr-21 22:33N 49°14' W 123°47'7 7.2
2016-Apr-21 21:33N 49°12' W 123°57'1919.2
2016-Apr-21 20:34N 49°19' W 123°30'10 9.6
2016-Apr-21 19:33N 49°23' W 123°16'1313.4
2016-Apr-21 18:33N 49°17' W 123°35'1615.5
2016-Apr-21 17:33N 49°12' W 123°57'1211.7
2016-Apr-21 16:34N 49°17' W 123°41'1717.3
2016-Apr-21 15:33N 49°23' W 123°16'9 9.0
2016-Apr-21 14:34N 49°18' W 123°28'2019.9
2016-Apr-21 13:33N 49°12' W 123°57'0 0.2
2016-Apr-21 12:26N 49°12' W 123°57'0 0.0
2016-Apr-21 11:24N 49°12' W 123°57'0 0.0
2016-Apr-21 10:33N 49°12' W 123°57'0 0.0
2016-Apr-21 09:33N 49°12' W 123°57'0 0.0
2016-Apr-21 08:32N 49°12' W 123°57'0 0.0
2016-Apr-21 07:33N 49°12' W 123°57'0 0.0
2016-Apr-21 06:28N 49°12' W 123°57'7 8.0
2016-Apr-21 05:33N 49°15' W 123°47'2019.6
2016-Apr-21 04:34N 49°21' W 123°19'4 4.1
2016-Apr-21 03:34N 49°19' W 123°24'2020.2
2016-Apr-21 02:33N 49°13' W 123°54'3 2.8
2016-Apr-21 01:34N 49°15' W 123°50'2019.7
2016-Apr-21 00:34N 49°20' W 123°21'3 2.7
2016-Apr-20 23:33N 49°22' W 123°19'1919.4
2016-Apr-20 22:33N 49°14' W 123°46'8 8.1
2016-Apr-20 21:33N 49°12' W 123°57'1817.9
2016-Apr-20 20:33N 49°18' W 123°32'1111.1
2016-Apr-20 19:34N 49°23' W 123°16'1414.0
2016-Apr-20 18:33N 49°16' W 123°35'1512.7
2016-Apr-20 17:22N 49°12' W 123°57'1315.7
2016-Apr-20 16:33N 49°16' W 123°39'1616.1
2016-Apr-20 15:33N 49°23' W 123°16'9 9.0
2016-Apr-20 14:33N 49°17' W 123°27'2020.2
2016-Apr-20 13:33N 49°12' W 123°57'0 0.0
2016-Apr-20 09:06N 49°12' W 123°57'0 0.0
2016-Apr-20 08:08N 49°12' W 123°57'0 0.0
2016-Apr-20 07:32N 49°12' W 123°57'6 6.2
2016-Apr-20 06:34N 49°14' W 123°49'2019.6
2016-Apr-20 05:34N 49°20' W 123°20'  
Track history (hours):
 
Tides and Currents Weather Stations Pressure Air Temp Water Temp Dewpoint Dewpoint Depression Visibility Wind Speed Wind Dir Waves Ship Positions

Queen Of Cowichan

Last reported at 2016-Apr-30 04:34 UTC. Time now 2016-Apr-30 05:12 UTC.
Position N 49°23' W 123°16'.

Length 139 m; draft 5.5 m.

Type: Passenger vessel. MMSI: 316001251.

Date/timePositionNaut miles runAvg speedWind from/ knotsBaromVisibWave heightAir tempDewpointWater temp
2016-Apr-30 04:34N 49°23' W 123°16'1514.6
2016-Apr-30 03:33N 49°16' W 123°37'1414.0
2016-Apr-30 02:32N 49°12' W 123°57'1212.3
2016-Apr-30 01:34N 49°16' W 123°41'1717.0
2016-Apr-30 00:33N 49°23' W 123°16'6 5.8
2016-Apr-29 23:34N 49°19' W 123°23'1919.4
2016-Apr-29 22:34N 49°14' W 123°52'4 4.1
2016-Apr-29 21:34N 49°12' W 123°57'1918.7
2016-Apr-29 20:33N 49°18' W 123°30'1010.2
2016-Apr-29 19:33N 49°23' W 123°16'1313.0
2016-Apr-29 18:34N 49°17' W 123°34'1615.5
2016-Apr-29 17:31N 49°12' W 123°57'1111.7
2016-Apr-29 16:34N 49°16' W 123°42'1817.7
2016-Apr-29 15:33N 49°23' W 123°16'9 9.0
2016-Apr-29 14:34N 49°18' W 123°28'2019.8
2016-Apr-29 13:34N 49°12' W 123°57'1 0.7
2016-Apr-29 12:27N 49°12' W 123°57'0 0.0
2016-Apr-29 11:09N 49°12' W 123°57'0 0.0
2016-Apr-29 09:33N 49°12' W 123°57'0 0.0
2016-Apr-29 08:27N 49°12' W 123°57'0 0.0
2016-Apr-29 06:33N 49°12' W 123°57'1010.3
2016-Apr-29 05:33N 49°16' W 123°43'1918.9
2016-Apr-29 04:33N 49°23' W 123°16'9 8.9
2016-Apr-29 03:33N 49°18' W 123°27'2020.1
2016-Apr-29 02:34N 49°12' W 123°57'6 6.4
2016-Apr-29 01:34N 49°15' W 123°48'2019.5
2016-Apr-29 00:34N 49°21' W 123°20'3 2.6
2016-Apr-28 23:33N 49°23' W 123°17'1918.8
2016-Apr-28 22:34N 49°15' W 123°43'10 9.9
2016-Apr-28 21:33N 49°12' W 123°57'1615.8
2016-Apr-28 20:33N 49°18' W 123°35'1313.2
2016-Apr-28 19:33N 49°23' W 123°16'1211.8
2016-Apr-28 18:34N 49°17' W 123°32'1717.2
2016-Apr-28 17:33N 49°12' W 123°57'1110.7
2016-Apr-28 16:33N 49°16' W 123°42'1818.4
2016-Apr-28 15:33N 49°23' W 123°16'9 9.1
2016-Apr-28 14:33N 49°18' W 123°28'2019.5
2016-Apr-28 13:33N 49°12' W 123°57'1 0.6
2016-Apr-28 12:27N 49°12' W 123°57'0 0.0
2016-Apr-28 11:31N 49°12' W 123°57'0 0.0
2016-Apr-28 10:17N 49°12' W 123°57'0 0.0
2016-Apr-28 09:33N 49°12' W 123°57'0 0.0
2016-Apr-28 08:33N 49°12' W 123°57'0 0.0
2016-Apr-28 07:33N 49°12' W 123°57'0 0.0
2016-Apr-28 06:32N 49°12' W 123°57'2 1.6
2016-Apr-28 05:33N 49°13' W 123°55'2019.8
2016-Apr-28 04:33N 49°19' W 123°27'7 6.9
2016-Apr-28 03:34N 49°23' W 123°18'1919.1
2016-Apr-28 02:33N 49°15' W 123°45'8 7.8
2016-Apr-28 01:33N 49°12' W 123°56'2019.7
2016-Apr-28 00:34N 49°19' W 123°28'8 8.2
2016-Apr-27 23:34N 49°23' W 123°17'1918.7
2016-Apr-27 22:34N 49°15' W 123°43'10 9.9
2016-Apr-27 21:33N 49°12' W 123°57'1515.5
2016-Apr-27 20:34N 49°17' W 123°36'1413.6
2016-Apr-27 19:33N 49°23' W 123°16'1211.9
2016-Apr-27 18:34N 49°17' W 123°32'1717.2
2016-Apr-27 17:33N 49°12' W 123°57'1010.5
2016-Apr-27 16:33N 49°16' W 123°43'1918.5
2016-Apr-27 15:34N 49°23' W 123°16'9 9.1
2016-Apr-27 14:33N 49°18' W 123°28'2019.9
2016-Apr-27 13:34N 49°12' W 123°57'1 0.2
2016-Apr-27 11:23N 49°12' W 123°57'0 0.0
2016-Apr-27 10:11N 49°12' W 123°57'1 0.3
2016-Apr-27 05:34N 49°13' W 123°56'2019.7
2016-Apr-27 04:33N 49°19' W 123°27'6 6.4
2016-Apr-27 03:34N 49°22' W 123°19'1919.0
2016-Apr-27 02:34N 49°15' W 123°46'7 7.5
2016-Apr-27 01:34N 49°12' W 123°56'2019.8
2016-Apr-27 00:33N 49°19' W 123°28'9 8.5
2016-Apr-26 23:34N 49°23' W 123°17'1918.9
2016-Apr-26 22:33N 49°15' W 123°43'10 9.9
2016-Apr-26 21:32N 49°12' W 123°57'1515.0
2016-Apr-26 20:34N 49°17' W 123°37'1414.3
2016-Apr-26 19:33N 49°23' W 123°16'1111.2
2016-Apr-26 18:33N 49°17' W 123°31'1817.2
2016-Apr-26 17:31N 49°12' W 123°57'1111.3
2016-Apr-26 16:33N 49°16' W 123°42'1818.1
2016-Apr-26 15:34N 49°23' W 123°16'10 9.8
2016-Apr-26 14:34N 49°18' W 123°29'1919.1
2016-Apr-26 13:33N 49°12' W 123°57'0 0.2
2016-Apr-26 12:32N 49°12' W 123°57'0 0.0
2016-Apr-26 10:20N 49°12' W 123°57'0 0.0
2016-Apr-26 09:32N 49°12' W 123°57'0 0.0
2016-Apr-26 06:32N 49°12' W 123°57'2 2.5
2016-Apr-26 05:33N 49°13' W 123°54'2020.0
2016-Apr-26 04:34N 49°19' W 123°25'3 3.4
2016-Apr-26 03:34N 49°20' W 123°20'2019.8
2016-Apr-26 02:33N 49°15' W 123°49'2 2.2
2016-Apr-26 01:34N 49°14' W 123°52'2019.9
2016-Apr-26 00:33N 49°19' W 123°23'4 3.8
2016-Apr-25 23:34N 49°22' W 123°19'1919.3
2016-Apr-25 22:34N 49°15' W 123°46'8 7.8
2016-Apr-25 21:33N 49°12' W 123°57'1717.1
2016-Apr-25 20:33N 49°18' W 123°33'1212.0
2016-Apr-25 19:33N 49°23' W 123°16'1312.9
2016-Apr-25 18:33N 49°16' W 123°33'1616.1
2016-Apr-25 17:33N 49°12' W 123°57'1111.3
2016-Apr-25 16:33N 49°16' W 123°42'1817.7
2016-Apr-25 15:33N 49°23' W 123°16'9 9.0
2016-Apr-25 14:33N 49°17' W 123°27'2019.8
2016-Apr-25 13:33N 49°12' W 123°57'1 0.1
2016-Apr-25 06:31N 49°12' W 123°57'1414.4
2016-Apr-25 05:34N 49°17' W 123°38'1515.2
2016-Apr-25 04:33N 49°23' W 123°16'1111.3
2016-Apr-25 03:33N 49°17' W 123°31'1817.2
2016-Apr-25 02:31N 49°12' W 123°57'7 7.3
2016-Apr-25 01:33N 49°15' W 123°48'1919.4
2016-Apr-25 00:33N 49°21' W 123°20'1 1.4
2016-Apr-24 23:34N 49°22' W 123°18'2019.6
2016-Apr-24 22:34N 49°15' W 123°46'8 7.8
2016-Apr-24 21:33N 49°12' W 123°57'1514.8
2016-Apr-24 20:33N 49°17' W 123°36'1414.2
2016-Apr-24 19:33N 49°23' W 123°16'1110.6
2016-Apr-24 18:33N 49°17' W 123°30'1817.4
2016-Apr-24 17:30N 49°12' W 123°57'1011.0
2016-Apr-24 16:33N 49°16' W 123°43'1918.7
2016-Apr-24 15:33N 49°23' W 123°16'8 8.2
2016-Apr-24 14:34N 49°18' W 123°26'2020.4
2016-Apr-24 13:34N 49°12' W 123°56'1 1.0
2016-Apr-24 12:32N 49°12' W 123°57'0 0.0
2016-Apr-24 11:28N 49°12' W 123°57'0 0.0
2016-Apr-24 10:31N 49°12' W 123°57'0 0.0
2016-Apr-24 09:32N 49°12' W 123°57'0 0.0
2016-Apr-24 08:33N 49°12' W 123°57'0 0.0
2016-Apr-24 07:33N 49°12' W 123°57'0 0.0
2016-Apr-24 06:33N 49°12' W 123°57'8 7.7
2016-Apr-24 05:34N 49°15' W 123°46'2019.6
2016-Apr-24 04:33N 49°22' W 123°19'4 4.0
2016-Apr-24 03:34N 49°19' W 123°23'2020.1
2016-Apr-24 02:34N 49°14' W 123°53'0 0.1
2016-Apr-24 01:34N 49°14' W 123°52'2020.1
2016-Apr-24 00:33N 49°19' W 123°23'6 5.5
2016-Apr-23 23:34N 49°23' W 123°17'1919.0
2016-Apr-23 22:33N 49°15' W 123°43'10 9.5
2016-Apr-23 21:30N 49°12' W 123°57'1415.0
2016-Apr-23 20:34N 49°17' W 123°37'1514.7
2016-Apr-23 19:34N 49°23' W 123°16'1212.3
2016-Apr-23 18:34N 49°17' W 123°33'1716.1
2016-Apr-23 17:31N 49°12' W 123°57'1111.0
2016-Apr-23 16:34N 49°17' W 123°43'1818.4
2016-Apr-23 15:33N 49°23' W 123°16'8 8.2
2016-Apr-23 14:34N 49°18' W 123°27'2020.3
2016-Apr-23 13:34N 49°12' W 123°57'1 0.4
2016-Apr-23 11:32N 49°12' W 123°57'0 0.0
2016-Apr-23 07:32N 49°12' W 123°57'4 3.7
2016-Apr-23 06:34N 49°14' W 123°53'2019.9
2016-Apr-23 05:34N 49°19' W 123°23'6 6.1
2016-Apr-23 04:33N 49°23' W 123°16'1817.5
2016-Apr-23 03:33N 49°15' W 123°41'1211.4
2016-Apr-23 02:33N 49°12' W 123°57'1515.6
2016-Apr-23 01:34N 49°17' W 123°35'1413.5
2016-Apr-23 00:33N 49°23' W 123°16'8 8.0
2016-Apr-22 23:34N 49°18' W 123°27'2019.9
2016-Apr-22 22:34N 49°13' W 123°56'2 2.2
2016-Apr-22 21:33N 49°14' W 123°53'2020.1
2016-Apr-22 20:34N 49°19' W 123°23'6 5.8
2016-Apr-22 19:33N 49°23' W 123°16'1817.5
2016-Apr-22 18:33N 49°15' W 123°41'1111.3
2016-Apr-22 17:33N 49°12' W 123°57'1616.3
2016-Apr-22 16:34N 49°18' W 123°35'1312.9
2016-Apr-22 15:34N 49°23' W 123°16'1211.9
2016-Apr-22 14:33N 49°17' W 123°32'1717.0
2016-Apr-22 13:33N 49°12' W 123°57'0 0.2
2016-Apr-22 12:29N 49°12' W 123°57'0 0.0
2016-Apr-22 11:17N 49°12' W 123°57'0 0.0
2016-Apr-22 10:29N 49°12' W 123°57'0 0.0
2016-Apr-22 09:05N 49°12' W 123°57'0 0.0
2016-Apr-22 08:23N 49°12' W 123°57'0 0.0
2016-Apr-22 07:32N 49°12' W 123°57'0 0.0
2016-Apr-22 06:29N 49°12' W 123°57'9 9.1
2016-Apr-22 05:34N 49°15' W 123°46'1919.3
2016-Apr-22 04:34N 49°23' W 123°18'8 7.5
2016-Apr-22 03:34N 49°18' W 123°27'2020.1
2016-Apr-22 02:33N 49°12' W 123°57'7 7.3
2016-Apr-22 01:33N 49°15' W 123°47'1919.1
2016-Apr-22 00:33N 49°22' W 123°19'0 0.3
2016-Apr-21 23:34N 49°22' W 123°19'2019.5
2016-Apr-21 22:33N 49°14' W 123°47'7 7.2
2016-Apr-21 21:33N 49°12' W 123°57'1919.2
2016-Apr-21 20:34N 49°19' W 123°30'10 9.6
2016-Apr-21 19:33N 49°23' W 123°16'1313.4
2016-Apr-21 18:33N 49°17' W 123°35'1615.5
2016-Apr-21 17:33N 49°12' W 123°57'1211.7
2016-Apr-21 16:34N 49°17' W 123°41'1717.3
2016-Apr-21 15:33N 49°23' W 123°16'9 9.0
2016-Apr-21 14:34N 49°18' W 123°28'2019.9
2016-Apr-21 13:33N 49°12' W 123°57'0 0.2
2016-Apr-21 12:26N 49°12' W 123°57'0 0.0
2016-Apr-21 11:24N 49°12' W 123°57'0 0.0
2016-Apr-21 10:33N 49°12' W 123°57'0 0.0
2016-Apr-21 09:33N 49°12' W 123°57'0 0.0
2016-Apr-21 08:32N 49°12' W 123°57'0 0.0
2016-Apr-21 07:33N 49°12' W 123°57'0 0.0
2016-Apr-21 06:28N 49°12' W 123°57'7 8.0
2016-Apr-21 05:33N 49°15' W 123°47'2019.6
2016-Apr-21 04:34N 49°21' W 123°19'4 4.1
2016-Apr-21 03:34N 49°19' W 123°24'2020.2
2016-Apr-21 02:33N 49°13' W 123°54'3 2.8
2016-Apr-21 01:34N 49°15' W 123°50'2019.7
2016-Apr-21 00:34N 49°20' W 123°21'3 2.7
2016-Apr-20 23:33N 49°22' W 123°19'1919.4
2016-Apr-20 22:33N 49°14' W 123°46'8 8.1
2016-Apr-20 21:33N 49°12' W 123°57'1817.9
2016-Apr-20 20:33N 49°18' W 123°32'1111.1
2016-Apr-20 19:34N 49°23' W 123°16'1414.0
2016-Apr-20 18:33N 49°16' W 123°35'1512.7
2016-Apr-20 17:22N 49°12' W 123°57'1315.7
2016-Apr-20 16:33N 49°16' W 123°39'1616.1
2016-Apr-20 15:33N 49°23' W 123°16'9 9.0
2016-Apr-20 14:33N 49°17' W 123°27'2020.2
2016-Apr-20 13:33N 49°12' W 123°57'0 0.0
2016-Apr-20 09:06N 49°12' W 123°57'0 0.0
2016-Apr-20 08:08N 49°12' W 123°57'0 0.0
2016-Apr-20 07:32N 49°12' W 123°57'6 6.2
2016-Apr-20 06:34N 49°14' W 123°49'2019.6
2016-Apr-20 05:34N 49°20' W 123°20'  

Dump ship's entire track history